sensor_id;sensor_type;location;lat;lon;timestamp;P1;durP1;ratioP1;P2;durP2;ratioP2
73487;SDS011;61721;42.206;25.320;2023-04-24T00:01:39;7.30;;;2.95;;
73487;SDS011;61721;42.206;25.320;2023-04-24T00:04:15;4.78;;;2.35;;
73487;SDS011;61721;42.206;25.320;2023-04-24T00:06:50;6.25;;;2.58;;
73487;SDS011;61721;42.206;25.320;2023-04-24T00:09:31;5.60;;;2.38;;
73487;SDS011;61721;42.206;25.320;2023-04-24T00:12:06;6.13;;;2.80;;
73487;SDS011;61721;42.206;25.320;2023-04-24T00:14:42;7.78;;;2.90;;
73487;SDS011;61721;42.206;25.320;2023-04-24T00:17:16;6.82;;;2.90;;
73487;SDS011;61721;42.206;25.320;2023-04-24T00:19:53;8.88;;;2.92;;
73487;SDS011;61721;42.206;25.320;2023-04-24T00:22:30;5.82;;;2.63;;
73487;SDS011;61721;42.206;25.320;2023-04-24T00:25:08;6.93;;;2.55;;
73487;SDS011;61721;42.206;25.320;2023-04-24T00:27:43;4.78;;;2.70;;
73487;SDS011;61721;42.206;25.320;2023-04-24T00:30:19;4.43;;;2.38;;
73487;SDS011;61721;42.206;25.320;2023-04-24T00:32:54;6.05;;;2.60;;
73487;SDS011;61721;42.206;25.320;2023-04-24T00:35:30;5.72;;;2.60;;
73487;SDS011;61721;42.206;25.320;2023-04-24T00:38:04;4.93;;;2.80;;
73487;SDS011;61721;42.206;25.320;2023-04-24T00:40:42;5.35;;;2.53;;
73487;SDS011;61721;42.206;25.320;2023-04-24T00:43:18;6.63;;;2.40;;
73487;SDS011;61721;42.206;25.320;2023-04-24T00:46:01;7.05;;;2.88;;
73487;SDS011;61721;42.206;25.320;2023-04-24T00:48:37;7.55;;;2.80;;
73487;SDS011;61721;42.206;25.320;2023-04-24T00:51:13;5.15;;;2.47;;
73487;SDS011;61721;42.206;25.320;2023-04-24T00:53:48;3.75;;;2.22;;
73487;SDS011;61721;42.206;25.320;2023-04-24T00:56:26;6.78;;;2.47;;
73487;SDS011;61721;42.206;25.320;2023-04-24T00:59:01;5.85;;;2.80;;
73487;SDS011;61721;42.206;25.320;2023-04-24T01:01:36;6.03;;;2.70;;
73487;SDS011;61721;42.206;25.320;2023-04-24T01:04:13;8.25;;;2.70;;
73487;SDS011;61721;42.206;25.320;2023-04-24T01:06:50;6.22;;;2.70;;
73487;SDS011;61721;42.206;25.320;2023-04-24T01:09:25;5.38;;;2.53;;
73487;SDS011;61721;42.206;25.320;2023-04-24T01:12:05;5.95;;;2.88;;
73487;SDS011;61721;42.206;25.320;2023-04-24T01:14:41;7.97;;;2.92;;
73487;SDS011;61721;42.206;25.320;2023-04-24T01:17:18;7.78;;;2.78;;
73487;SDS011;61721;42.206;25.320;2023-04-24T01:19:52;7.90;;;3.05;;
73487;SDS011;61721;42.206;25.320;2023-04-24T01:22:31;8.60;;;2.78;;
73487;SDS011;61721;42.206;25.320;2023-04-24T01:25:07;10.27;;;3.42;;
73487;SDS011;61721;42.206;25.320;2023-04-24T01:27:43;10.60;;;2.92;;
73487;SDS011;61721;42.206;25.320;2023-04-24T01:30:18;9.15;;;2.95;;
73487;SDS011;61721;42.206;25.320;2023-04-24T01:32:53;5.40;;;2.83;;
73487;SDS011;61721;42.206;25.320;2023-04-24T01:35:29;7.22;;;2.90;;
73487;SDS011;61721;42.206;25.320;2023-04-24T01:38:07;6.97;;;2.92;;
73487;SDS011;61721;42.206;25.320;2023-04-24T01:40:42;6.68;;;3.00;;
73487;SDS011;61721;42.206;25.320;2023-04-24T01:43:17;7.10;;;3.13;;
73487;SDS011;61721;42.206;25.320;2023-04-24T01:45:53;8.07;;;3.08;;
73487;SDS011;61721;42.206;25.320;2023-04-24T01:48:35;8.68;;;3.50;;
73487;SDS011;61721;42.206;25.320;2023-04-24T01:51:11;4.88;;;2.80;;
73487;SDS011;61721;42.206;25.320;2023-04-24T01:53:48;4.70;;;2.58;;
73487;SDS011;61721;42.206;25.320;2023-04-24T01:56:24;8.95;;;3.20;;
73487;SDS011;61721;42.206;25.320;2023-04-24T01:59:00;7.35;;;3.53;;
73487;SDS011;61721;42.206;25.320;2023-04-24T02:01:36;6.78;;;3.15;;
73487;SDS011;61721;42.206;25.320;2023-04-24T02:04:12;7.15;;;3.20;;
73487;SDS011;61721;42.206;25.320;2023-04-24T02:06:46;9.23;;;3.80;;
73487;SDS011;61721;42.206;25.320;2023-04-24T02:09:25;7.30;;;3.08;;
73487;SDS011;61721;42.206;25.320;2023-04-24T02:12:00;5.72;;;3.05;;
73487;SDS011;61721;42.206;25.320;2023-04-24T02:14:36;6.05;;;3.00;;
73487;SDS011;61721;42.206;25.320;2023-04-24T02:17:10;8.30;;;3.28;;
73487;SDS011;61721;42.206;25.320;2023-04-24T02:19:47;9.25;;;3.30;;
73487;SDS011;61721;42.206;25.320;2023-04-24T02:22:23;8.77;;;3.20;;
73487;SDS011;61721;42.206;25.320;2023-04-24T02:25:00;8.55;;;3.30;;
73487;SDS011;61721;42.206;25.320;2023-04-24T02:27:35;8.23;;;3.80;;
73487;SDS011;61721;42.206;25.320;2023-04-24T02:30:11;9.73;;;3.78;;
73487;SDS011;61721;42.206;25.320;2023-04-24T02:32:46;8.27;;;3.25;;
73487;SDS011;61721;42.206;25.320;2023-04-24T02:35:22;5.97;;;3.17;;
73487;SDS011;61721;42.206;25.320;2023-04-24T02:37:56;7.05;;;3.15;;
73487;SDS011;61721;42.206;25.320;2023-04-24T02:40:34;7.07;;;3.33;;
73487;SDS011;61721;42.206;25.320;2023-04-24T02:43:09;11.60;;;4.40;;
73487;SDS011;61721;42.206;25.320;2023-04-24T02:45:53;9.15;;;4.60;;
73487;SDS011;61721;42.206;25.320;2023-04-24T02:48:28;8.27;;;3.45;;
73487;SDS011;61721;42.206;25.320;2023-04-24T02:51:04;9.80;;;4.47;;
73487;SDS011;61721;42.206;25.320;2023-04-24T02:53:39;6.10;;;3.70;;
73487;SDS011;61721;42.206;25.320;2023-04-24T02:56:17;5.40;;;3.15;;
73487;SDS011;61721;42.206;25.320;2023-04-24T02:58:52;8.75;;;3.60;;
73487;SDS011;61721;42.206;25.320;2023-04-24T07:14:19;10.00;;;4.32;;
73487;SDS011;61721;42.206;25.320;2023-04-24T07:17:02;7.68;;;4.32;;
73487;SDS011;61721;42.206;25.320;2023-04-24T07:19:37;6.40;;;3.70;;
73487;SDS011;61721;42.206;25.320;2023-04-24T07:22:12;8.57;;;3.97;;
73487;SDS011;61721;42.206;25.320;2023-04-24T07:24:49;7.15;;;3.63;;
73487;SDS011;61721;42.206;25.320;2023-04-24T07:27:25;7.13;;;3.90;;
73487;SDS011;61721;42.206;25.320;2023-04-24T07:30:03;8.65;;;4.43;;
73487;SDS011;61721;42.206;25.320;2023-04-24T07:32:39;8.63;;;4.10;;
73487;SDS011;61721;42.206;25.320;2023-04-24T07:35:15;7.72;;;4.05;;
73487;SDS011;61721;42.206;25.320;2023-04-24T07:37:51;9.13;;;3.72;;
73487;SDS011;61721;42.206;25.320;2023-04-24T07:40:27;10.60;;;4.60;;
73487;SDS011;61721;42.206;25.320;2023-04-24T07:43:02;8.13;;;3.97;;
73487;SDS011;61721;42.206;25.320;2023-04-24T07:45:39;7.15;;;3.97;;
73487;SDS011;61721;42.206;25.320;2023-04-24T07:48:15;7.60;;;3.92;;
73487;SDS011;61721;42.206;25.320;2023-04-24T07:50:51;8.90;;;4.07;;
73487;SDS011;61721;42.206;25.320;2023-04-24T07:53:26;7.30;;;3.90;;
73487;SDS011;61721;42.206;25.320;2023-04-24T07:56:01;9.75;;;3.83;;
73487;SDS011;61721;42.206;25.320;2023-04-24T07:58:36;8.30;;;4.13;;
73487;SDS011;61721;42.206;25.320;2023-04-24T08:01:14;7.10;;;4.40;;
73487;SDS011;61721;42.206;25.320;2023-04-24T08:03:51;6.25;;;4.20;;
73487;SDS011;61721;42.206;25.320;2023-04-24T08:06:26;10.18;;;4.05;;
73487;SDS011;61721;42.206;25.320;2023-04-24T08:09:02;7.20;;;3.95;;
73487;SDS011;61721;42.206;25.320;2023-04-24T08:11:38;10.52;;;4.28;;
73487;SDS011;61721;42.206;25.320;2023-04-24T08:14:13;6.60;;;3.72;;
73487;SDS011;61721;42.206;25.320;2023-04-24T08:16:58;6.95;;;3.70;;
73487;SDS011;61721;42.206;25.320;2023-04-24T08:19:34;8.80;;;4.00;;
73487;SDS011;61721;42.206;25.320;2023-04-24T08:22:09;8.07;;;3.67;;
73487;SDS011;61721;42.206;25.320;2023-04-24T08:24:45;7.45;;;3.58;;
73487;SDS011;61721;42.206;25.320;2023-04-24T08:27:20;6.38;;;4.07;;
73487;SDS011;61721;42.206;25.320;2023-04-24T08:29:56;7.15;;;3.53;;
73487;SDS011;61721;42.206;25.320;2023-04-24T08:32:34;6.53;;;3.40;;
73487;SDS011;61721;42.206;25.320;2023-04-24T08:35:10;6.03;;;3.47;;
73487;SDS011;61721;42.206;25.320;2023-04-24T08:37:46;7.38;;;3.75;;
73487;SDS011;61721;42.206;25.320;2023-04-24T08:40:22;7.65;;;3.83;;
73487;SDS011;61721;42.206;25.320;2023-04-24T08:42:58;8.93;;;4.10;;
73487;SDS011;61721;42.206;25.320;2023-04-24T08:45:34;7.18;;;3.67;;
73487;SDS011;61721;42.206;25.320;2023-04-24T08:48:12;9.07;;;3.40;;
73487;SDS011;61721;42.206;25.320;2023-04-24T08:50:48;6.82;;;3.30;;
73487;SDS011;61721;42.206;25.320;2023-04-24T08:53:24;9.07;;;4.03;;
73487;SDS011;61721;42.206;25.320;2023-04-24T08:56:00;7.05;;;3.30;;
73487;SDS011;61721;42.206;25.320;2023-04-24T08:58:37;7.80;;;3.50;;
73487;SDS011;61721;42.206;25.320;2023-04-24T09:01:13;7.30;;;3.72;;
73487;SDS011;61721;42.206;25.320;2023-04-24T09:03:51;7.55;;;3.70;;
73487;SDS011;61721;42.206;25.320;2023-04-24T09:06:30;5.80;;;3.50;;
73487;SDS011;61721;42.206;25.320;2023-04-24T09:09:06;11.38;;;4.53;;
73487;SDS011;61721;42.206;25.320;2023-04-24T09:11:44;8.18;;;3.78;;
73487;SDS011;61721;42.206;25.320;2023-04-24T09:14:20;12.63;;;3.60;;
73487;SDS011;61721;42.206;25.320;2023-04-24T09:16:56;8.32;;;3.47;;
73487;SDS011;61721;42.206;25.320;2023-04-24T09:22:16;7.93;;;3.40;;
73487;SDS011;61721;42.206;25.320;2023-04-24T09:24:59;5.88;;;2.90;;
73487;SDS011;61721;42.206;25.320;2023-04-24T09:27:35;8.15;;;3.40;;
73487;SDS011;61721;42.206;25.320;2023-04-24T09:30:11;9.35;;;4.18;;
73487;SDS011;61721;42.206;25.320;2023-04-24T09:32:47;6.80;;;3.25;;
73487;SDS011;61721;42.206;25.320;2023-04-24T09:35:22;6.38;;;3.47;;
73487;SDS011;61721;42.206;25.320;2023-04-24T09:38:00;6.47;;;3.15;;
73487;SDS011;61721;42.206;25.320;2023-04-24T09:40:35;7.10;;;3.15;;
73487;SDS011;61721;42.206;25.320;2023-04-24T09:43:10;6.93;;;3.63;;
73487;SDS011;61721;42.206;25.320;2023-04-24T09:45:46;5.35;;;3.00;;
73487;SDS011;61721;42.206;25.320;2023-04-24T09:48:29;5.38;;;3.35;;
73487;SDS011;61721;42.206;25.320;2023-04-24T09:51:04;6.95;;;3.13;;
73487;SDS011;61721;42.206;25.320;2023-04-24T09:53:47;4.60;;;3.05;;
73487;SDS011;61721;42.206;25.320;2023-04-24T09:56:28;5.60;;;3.30;;
73487;SDS011;61721;42.206;25.320;2023-04-24T09:59:07;7.55;;;3.35;;
73487;SDS011;61721;42.206;25.320;2023-04-24T10:01:43;5.85;;;3.33;;
73487;SDS011;61721;42.206;25.320;2023-04-24T10:04:20;5.80;;;3.03;;
73487;SDS011;61721;42.206;25.320;2023-04-24T10:06:56;5.05;;;2.90;;
73487;SDS011;61721;42.206;25.320;2023-04-24T10:09:35;6.60;;;3.22;;
73487;SDS011;61721;42.206;25.320;2023-04-24T10:12:11;4.85;;;3.05;;
73487;SDS011;61721;42.206;25.320;2023-04-24T10:17:29;6.68;;;3.00;;
73487;SDS011;61721;42.206;25.320;2023-04-24T10:20:06;8.25;;;3.08;;
73487;SDS011;61721;42.206;25.320;2023-04-24T10:22:41;7.93;;;3.13;;
73487;SDS011;61721;42.206;25.320;2023-04-24T10:25:21;7.35;;;3.38;;
73487;SDS011;61721;42.206;25.320;2023-04-24T10:27:57;5.50;;;3.08;;
73487;SDS011;61721;42.206;25.320;2023-04-24T10:30:34;4.75;;;2.92;;
73487;SDS011;61721;42.206;25.320;2023-04-24T10:33:10;5.50;;;2.88;;
73487;SDS011;61721;42.206;25.320;2023-04-24T10:38:22;7.47;;;3.25;;
73487;SDS011;61721;42.206;25.320;2023-04-24T10:41:09;7.32;;;3.50;;
73487;SDS011;61721;42.206;25.320;2023-04-24T10:43:48;5.72;;;3.50;;
73487;SDS011;61721;42.206;25.320;2023-04-24T10:46:23;7.70;;;3.10;;
73487;SDS011;61721;42.206;25.320;2023-04-24T10:49:04;6.72;;;3.08;;
73487;SDS011;61721;42.206;25.320;2023-04-24T10:51:44;7.45;;;3.17;;
73487;SDS011;61721;42.206;25.320;2023-04-24T10:54:23;4.95;;;3.35;;
73487;SDS011;61721;42.206;25.320;2023-04-24T11:02:52;6.70;;;3.00;;
73487;SDS011;61721;42.206;25.320;2023-04-24T11:08:25;4.80;;;3.05;;
73487;SDS011;61721;42.206;25.320;2023-04-24T11:11:02;7.45;;;3.05;;
73487;SDS011;61721;42.206;25.320;2023-04-24T11:16:28;7.78;;;3.13;;
73487;SDS011;61721;42.206;25.320;2023-04-24T11:19:20;5.87;;;3.30;;
73487;SDS011;61721;42.206;25.320;2023-04-24T11:21:58;7.15;;;3.55;;
73487;SDS011;61721;42.206;25.320;2023-04-24T11:24:37;6.00;;;3.10;;
73487;SDS011;61721;42.206;25.320;2023-04-24T11:27:15;5.47;;;3.30;;
73487;SDS011;61721;42.206;25.320;2023-04-24T11:29:58;7.65;;;3.20;;
73487;SDS011;61721;42.206;25.320;2023-04-24T11:32:35;5.07;;;2.72;;
73487;SDS011;61721;42.206;25.320;2023-04-24T11:35:16;8.50;;;3.40;;
73487;SDS011;61721;42.206;25.320;2023-04-24T11:37:53;4.97;;;3.00;;
73487;SDS011;61721;42.206;25.320;2023-04-24T11:40:30;5.50;;;3.00;;
73487;SDS011;61721;42.206;25.320;2023-04-24T11:43:05;6.38;;;3.10;;
73487;SDS011;61721;42.206;25.320;2023-04-24T11:45:47;7.07;;;3.10;;
73487;SDS011;61721;42.206;25.320;2023-04-24T11:48:23;4.80;;;3.25;;
73487;SDS011;61721;42.206;25.320;2023-04-24T11:51:03;6.53;;;3.20;;
73487;SDS011;61721;42.206;25.320;2023-04-24T11:53:39;5.30;;;3.00;;
73487;SDS011;61721;42.206;25.320;2023-04-24T11:56:17;5.57;;;3.25;;
73487;SDS011;61721;42.206;25.320;2023-04-24T11:58:53;6.10;;;2.97;;
73487;SDS011;61721;42.206;25.320;2023-04-24T12:01:29;4.47;;;3.13;;
73487;SDS011;61721;42.206;25.320;2023-04-24T12:04:04;9.05;;;3.47;;
73487;SDS011;61721;42.206;25.320;2023-04-24T12:06:42;5.80;;;3.33;;
73487;SDS011;61721;42.206;25.320;2023-04-24T12:09:40;7.50;;;3.10;;
73487;SDS011;61721;42.206;25.320;2023-04-24T12:12:18;9.55;;;3.13;;
73487;SDS011;61721;42.206;25.320;2023-04-24T12:14:54;6.97;;;3.63;;
73487;SDS011;61721;42.206;25.320;2023-04-24T12:17:30;6.72;;;3.30;;
73487;SDS011;61721;42.206;25.320;2023-04-24T12:20:07;8.63;;;3.90;;
73487;SDS011;61721;42.206;25.320;2023-04-24T12:22:46;4.87;;;3.00;;
73487;SDS011;61721;42.206;25.320;2023-04-24T12:25:22;5.13;;;3.03;;
73487;SDS011;61721;42.206;25.320;2023-04-24T12:28:08;4.53;;;3.00;;
73487;SDS011;61721;42.206;25.320;2023-04-24T12:30:46;5.27;;;2.73;;
73487;SDS011;61721;42.206;25.320;2023-04-24T12:33:23;6.50;;;3.03;;
73487;SDS011;61721;42.206;25.320;2023-04-24T12:35:59;6.00;;;3.10;;
73487;SDS011;61721;42.206;25.320;2023-04-24T12:38:37;7.57;;;3.20;;
73487;SDS011;61721;42.206;25.320;2023-04-24T12:41:16;6.90;;;3.08;;
73487;SDS011;61721;42.206;25.320;2023-04-24T12:43:52;6.22;;;3.33;;
73487;SDS011;61721;42.206;25.320;2023-04-24T12:46:28;5.93;;;2.87;;
73487;SDS011;61721;42.206;25.320;2023-04-24T12:49:04;5.05;;;2.67;;
73487;SDS011;61721;42.206;25.320;2023-04-24T12:51:39;8.23;;;3.07;;
73487;SDS011;61721;42.206;25.320;2023-04-24T12:54:17;6.43;;;2.97;;
73487;SDS011;61721;42.206;25.320;2023-04-24T12:56:53;4.32;;;2.72;;
73487;SDS011;61721;42.206;25.320;2023-04-24T12:59:29;5.03;;;2.70;;
73487;SDS011;61721;42.206;25.320;2023-04-24T13:02:05;8.90;;;3.03;;
73487;SDS011;61721;42.206;25.320;2023-04-24T13:04:42;4.23;;;2.40;;
73487;SDS011;61721;42.206;25.320;2023-04-24T13:07:18;4.63;;;2.60;;
73487;SDS011;61721;42.206;25.320;2023-04-24T13:09:56;5.47;;;2.80;;
73487;SDS011;61721;42.206;25.320;2023-04-24T13:12:32;4.78;;;2.80;;
73487;SDS011;61721;42.206;25.320;2023-04-24T13:15:08;9.63;;;3.30;;
73487;SDS011;61721;42.206;25.320;2023-04-24T13:17:44;8.23;;;3.30;;
73487;SDS011;61721;42.206;25.320;2023-04-24T13:20:20;5.80;;;3.50;;
73487;SDS011;61721;42.206;25.320;2023-04-24T13:22:56;4.68;;;2.50;;
73487;SDS011;61721;42.206;25.320;2023-04-24T13:25:35;7.10;;;2.83;;
73487;SDS011;61721;42.206;25.320;2023-04-24T13:28:13;4.80;;;2.97;;
73487;SDS011;61721;42.206;25.320;2023-04-24T13:30:48;5.57;;;2.53;;
73487;SDS011;61721;42.206;25.320;2023-04-24T13:33:24;5.53;;;2.47;;
73487;SDS011;61721;42.206;25.320;2023-04-24T13:36:00;8.43;;;2.50;;
73487;SDS011;61721;42.206;25.320;2023-04-24T13:38:36;6.73;;;2.50;;
73487;SDS011;61721;42.206;25.320;2023-04-24T13:41:14;5.75;;;2.70;;
73487;SDS011;61721;42.206;25.320;2023-04-24T13:43:50;6.82;;;2.65;;
73487;SDS011;61721;42.206;25.320;2023-04-24T13:46:26;10.93;;;3.78;;
73487;SDS011;61721;42.206;25.320;2023-04-24T13:49:02;7.47;;;2.70;;
73487;SDS011;61721;42.206;25.320;2023-04-24T13:51:38;4.55;;;2.70;;
73487;SDS011;61721;42.206;25.320;2023-04-24T13:54:14;5.47;;;2.73;;
73487;SDS011;61721;42.206;25.320;2023-04-24T13:56:53;6.57;;;2.45;;
73487;SDS011;61721;42.206;25.320;2023-04-24T13:59:29;7.87;;;2.70;;
73487;SDS011;61721;42.206;25.320;2023-04-24T14:02:05;5.60;;;2.97;;
73487;SDS011;61721;42.206;25.320;2023-04-24T14:04:41;4.93;;;2.80;;
73487;SDS011;61721;42.206;25.320;2023-04-24T14:07:16;5.47;;;2.53;;
73487;SDS011;61721;42.206;25.320;2023-04-24T14:09:52;8.27;;;2.73;;
73487;SDS011;61721;42.206;25.320;2023-04-24T14:12:30;5.03;;;2.40;;
73487;SDS011;61721;42.206;25.320;2023-04-24T14:15:06;7.00;;;3.20;;
73487;SDS011;61721;42.206;25.320;2023-04-24T14:17:50;5.95;;;2.75;;
73487;SDS011;61721;42.206;25.320;2023-04-24T14:20:26;7.33;;;3.13;;
73487;SDS011;61721;42.206;25.320;2023-04-24T14:23:02;5.53;;;2.50;;
73487;SDS011;61721;42.206;25.320;2023-04-24T14:25:40;8.02;;;2.70;;
73487;SDS011;61721;42.206;25.320;2023-04-24T14:28:19;7.47;;;2.90;;
73487;SDS011;61721;42.206;25.320;2023-04-24T14:30:54;7.07;;;2.40;;
73487;SDS011;61721;42.206;25.320;2023-04-24T14:33:30;6.38;;;2.90;;
73487;SDS011;61721;42.206;25.320;2023-04-24T14:36:06;6.00;;;2.83;;
73487;SDS011;61721;42.206;25.320;2023-04-24T14:38:42;7.40;;;2.70;;
73487;SDS011;61721;42.206;25.320;2023-04-24T14:41:17;5.77;;;2.97;;
73487;SDS011;61721;42.206;25.320;2023-04-24T14:43:55;5.90;;;2.63;;
73487;SDS011;61721;42.206;25.320;2023-04-24T14:46:31;7.07;;;2.93;;
73487;SDS011;61721;42.206;25.320;2023-04-24T14:49:07;5.45;;;3.05;;
73487;SDS011;61721;42.206;25.320;2023-04-24T14:51:44;5.97;;;3.08;;
73487;SDS011;61721;42.206;25.320;2023-04-24T14:54:20;5.37;;;2.80;;
73487;SDS011;61721;42.206;25.320;2023-04-24T14:56:56;5.38;;;2.90;;
73487;SDS011;61721;42.206;25.320;2023-04-24T14:59:36;5.43;;;3.00;;
73487;SDS011;61721;42.206;25.320;2023-04-24T15:02:11;5.37;;;2.80;;
73487;SDS011;61721;42.206;25.320;2023-04-24T15:04:48;6.55;;;2.80;;
73487;SDS011;61721;42.206;25.320;2023-04-24T15:07:23;3.60;;;2.30;;
73487;SDS011;61721;42.206;25.320;2023-04-24T15:09:59;6.03;;;2.50;;
73487;SDS011;61721;42.206;25.320;2023-04-24T15:15:13;3.78;;;2.03;;
73487;SDS011;61721;42.206;25.320;2023-04-24T15:17:49;4.43;;;2.08;;
73487;SDS011;61721;42.206;25.320;2023-04-24T15:20:33;4.55;;;2.40;;
73487;SDS011;61721;42.206;25.320;2023-04-24T15:23:10;5.15;;;2.53;;
73487;SDS011;61721;42.206;25.320;2023-04-24T15:25:46;4.75;;;2.47;;
73487;SDS011;61721;42.206;25.320;2023-04-24T15:28:22;5.65;;;2.80;;
73487;SDS011;61721;42.206;25.320;2023-04-24T15:33:36;6.35;;;2.80;;
73487;SDS011;61721;42.206;25.320;2023-04-24T15:36:11;4.93;;;2.63;;
73487;SDS011;61721;42.206;25.320;2023-04-24T15:38:47;6.35;;;2.92;;
73487;SDS011;61721;42.206;25.320;2023-04-24T15:41:25;4.95;;;2.35;;
73487;SDS011;61721;42.206;25.320;2023-04-24T15:44:01;8.07;;;2.80;;
73487;SDS011;61721;42.206;25.320;2023-04-24T15:46:37;6.43;;;3.15;;
73487;SDS011;61721;42.206;25.320;2023-04-24T15:49:15;5.53;;;2.90;;
73487;SDS011;61721;42.206;25.320;2023-04-24T15:51:50;9.77;;;2.92;;
73487;SDS011;61721;42.206;25.320;2023-04-24T15:54:25;4.32;;;2.45;;
73487;SDS011;61721;42.206;25.320;2023-04-24T15:57:01;5.47;;;2.30;;
73487;SDS011;61721;42.206;25.320;2023-04-24T15:59:36;6.82;;;3.45;;
73487;SDS011;61721;42.206;25.320;2023-04-24T16:02:11;6.18;;;2.90;;
73487;SDS011;61721;42.206;25.320;2023-04-24T16:04:53;4.63;;;2.80;;
73487;SDS011;61721;42.206;25.320;2023-04-24T16:07:28;7.28;;;2.95;;
73487;SDS011;61721;42.206;25.320;2023-04-24T16:10:05;7.10;;;2.53;;
73487;SDS011;61721;42.206;25.320;2023-04-24T16:12:40;5.35;;;2.90;;
73487;SDS011;61721;42.206;25.320;2023-04-24T16:17:58;5.45;;;2.70;;
73487;SDS011;61721;42.206;25.320;2023-04-24T16:20:38;5.57;;;3.00;;
73487;SDS011;61721;42.206;25.320;2023-04-24T16:23:14;7.10;;;2.65;;
73487;SDS011;61721;42.206;25.320;2023-04-24T16:28:26;6.20;;;3.10;;
73487;SDS011;61721;42.206;25.320;2023-04-24T16:31:04;5.68;;;2.92;;
73487;SDS011;61721;42.206;25.320;2023-04-24T16:33:40;4.22;;;2.53;;
73487;SDS011;61721;42.206;25.320;2023-04-24T16:38:54;4.20;;;2.28;;
73487;SDS011;61721;42.206;25.320;2023-04-24T16:41:32;4.40;;;2.25;;
73487;SDS011;61721;42.206;25.320;2023-04-24T16:44:09;4.85;;;2.20;;
73487;SDS011;61721;42.206;25.320;2023-04-24T16:46:45;4.07;;;1.88;;
73487;SDS011;61721;42.206;25.320;2023-04-24T16:49:21;6.00;;;2.58;;
73487;SDS011;61721;42.206;25.320;2023-04-24T16:52:01;6.75;;;2.42;;
73487;SDS011;61721;42.206;25.320;2023-04-24T16:54:40;4.07;;;2.40;;
73487;SDS011;61721;42.206;25.320;2023-04-24T16:57:15;4.28;;;2.30;;
73487;SDS011;61721;42.206;25.320;2023-04-24T16:59:51;4.10;;;2.35;;
73487;SDS011;61721;42.206;25.320;2023-04-24T17:05:03;4.60;;;2.40;;
73487;SDS011;61721;42.206;25.320;2023-04-24T17:10:17;6.45;;;2.30;;
73487;SDS011;61721;42.206;25.320;2023-04-24T17:12:52;5.57;;;2.70;;
73487;SDS011;61721;42.206;25.320;2023-04-24T17:15:29;4.65;;;2.60;;
73487;SDS011;61721;42.206;25.320;2023-04-24T17:20:48;5.53;;;2.90;;
73487;SDS011;61721;42.206;25.320;2023-04-24T17:23:24;5.70;;;2.25;;
73487;SDS011;61721;42.206;25.320;2023-04-24T17:26:03;5.07;;;2.42;;
73487;SDS011;61721;42.206;25.320;2023-04-24T17:28:39;5.00;;;2.33;;
73487;SDS011;61721;42.206;25.320;2023-04-24T17:31:15;5.32;;;2.80;;
73487;SDS011;61721;42.206;25.320;2023-04-24T17:33:51;5.82;;;2.63;;
73487;SDS011;61721;42.206;25.320;2023-04-24T17:36:27;5.35;;;2.42;;
73487;SDS011;61721;42.206;25.320;2023-04-24T17:39:03;8.80;;;2.70;;
73487;SDS011;61721;42.206;25.320;2023-04-24T17:41:44;6.22;;;2.60;;
73487;SDS011;61721;42.206;25.320;2023-04-24T17:44:19;4.97;;;2.50;;
73487;SDS011;61721;42.206;25.320;2023-04-24T17:46:55;6.22;;;2.90;;
73487;SDS011;61721;42.206;25.320;2023-04-24T17:49:31;5.25;;;2.90;;
73487;SDS011;61721;42.206;25.320;2023-04-24T17:52:08;4.90;;;2.63;;
73487;SDS011;61721;42.206;25.320;2023-04-24T17:54:44;6.35;;;2.92;;
73487;SDS011;61721;42.206;25.320;2023-04-24T17:57:28;5.45;;;2.78;;
73487;SDS011;61721;42.206;25.320;2023-04-24T18:00:05;7.15;;;2.80;;
73487;SDS011;61721;42.206;25.320;2023-04-24T18:02:40;5.03;;;2.38;;
73487;SDS011;61721;42.206;25.320;2023-04-24T18:05:15;6.57;;;3.67;;
73487;SDS011;61721;42.206;25.320;2023-04-24T18:07:50;8.55;;;3.53;;
73487;SDS011;61721;42.206;25.320;2023-04-24T18:10:25;8.02;;;3.92;;
73487;SDS011;61721;42.206;25.320;2023-04-24T18:13:05;11.05;;;3.83;;
73487;SDS011;61721;42.206;25.320;2023-04-24T18:15:40;6.45;;;3.53;;
73487;SDS011;61721;42.206;25.320;2023-04-24T18:18:22;7.57;;;4.10;;
73487;SDS011;61721;42.206;25.320;2023-04-24T18:20:58;10.57;;;5.00;;
73487;SDS011;61721;42.206;25.320;2023-04-24T18:23:34;6.97;;;4.00;;
73487;SDS011;61721;42.206;25.320;2023-04-24T18:26:10;6.90;;;4.22;;
73487;SDS011;61721;42.206;25.320;2023-04-24T18:28:49;8.32;;;3.72;;
73487;SDS011;61721;42.206;25.320;2023-04-24T18:31:25;8.40;;;4.07;;
73487;SDS011;61721;42.206;25.320;2023-04-24T18:34:03;7.03;;;3.63;;
73487;SDS011;61721;42.206;25.320;2023-04-24T18:36:39;9.63;;;3.60;;
73487;SDS011;61721;42.206;25.320;2023-04-24T18:39:14;6.18;;;3.70;;
73487;SDS011;61721;42.206;25.320;2023-04-24T18:41:49;6.65;;;3.60;;
73487;SDS011;61721;42.206;25.320;2023-04-24T18:44:28;6.50;;;3.63;;
73487;SDS011;61721;42.206;25.320;2023-04-24T18:47:03;8.13;;;3.47;;
73487;SDS011;61721;42.206;25.320;2023-04-24T18:49:38;6.78;;;3.60;;
73487;SDS011;61721;42.206;25.320;2023-04-24T18:52:13;5.88;;;3.30;;
73487;SDS011;61721;42.206;25.320;2023-04-24T18:54:48;6.18;;;3.40;;
73487;SDS011;61721;42.206;25.320;2023-04-24T18:57:23;6.40;;;3.35;;
73487;SDS011;61721;42.206;25.320;2023-04-24T19:00:01;5.35;;;3.08;;
73487;SDS011;61721;42.206;25.320;2023-04-24T19:02:37;4.97;;;3.15;;
73487;SDS011;61721;42.206;25.320;2023-04-24T19:05:13;5.45;;;3.25;;
73487;SDS011;61721;42.206;25.320;2023-04-24T19:07:48;7.55;;;3.15;;
73487;SDS011;61721;42.206;25.320;2023-04-24T19:10:23;5.97;;;3.38;;
73487;SDS011;61721;42.206;25.320;2023-04-24T19:12:59;5.63;;;3.03;;
73487;SDS011;61721;42.206;25.320;2023-04-24T19:15:36;6.22;;;3.15;;
73487;SDS011;61721;42.206;25.320;2023-04-24T19:18:12;5.00;;;3.10;;
73487;SDS011;61721;42.206;25.320;2023-04-24T19:20:48;5.45;;;3.17;;
73487;SDS011;61721;42.206;25.320;2023-04-24T19:23:23;5.40;;;3.10;;
73487;SDS011;61721;42.206;25.320;2023-04-24T19:25:58;7.97;;;3.35;;
73487;SDS011;61721;42.206;25.320;2023-04-24T19:28:33;5.68;;;3.17;;
73487;SDS011;61721;42.206;25.320;2023-04-24T19:31:12;6.22;;;2.92;;
73487;SDS011;61721;42.206;25.320;2023-04-24T19:33:47;6.72;;;3.17;;
73487;SDS011;61721;42.206;25.320;2023-04-24T19:36:22;6.57;;;3.42;;
73487;SDS011;61721;42.206;25.320;2023-04-24T19:38:58;6.30;;;3.22;;
73487;SDS011;61721;42.206;25.320;2023-04-24T19:41:34;6.30;;;2.75;;
73487;SDS011;61721;42.206;25.320;2023-04-24T19:44:10;6.10;;;3.22;;
73487;SDS011;61721;42.206;25.320;2023-04-24T19:46:52;6.32;;;3.03;;
73487;SDS011;61721;42.206;25.320;2023-04-24T19:49:28;5.72;;;3.22;;
73487;SDS011;61721;42.206;25.320;2023-04-24T19:52:04;6.35;;;2.97;;
73487;SDS011;61721;42.206;25.320;2023-04-24T19:54:39;5.28;;;3.10;;
73487;SDS011;61721;42.206;25.320;2023-04-24T19:57:15;6.47;;;3.15;;
73487;SDS011;61721;42.206;25.320;2023-04-24T19:59:50;4.97;;;2.67;;
73487;SDS011;61721;42.206;25.320;2023-04-24T20:02:28;7.55;;;3.28;;
73487;SDS011;61721;42.206;25.320;2023-04-24T20:05:03;5.50;;;2.90;;
73487;SDS011;61721;42.206;25.320;2023-04-24T20:07:39;9.32;;;3.53;;
73487;SDS011;61721;42.206;25.320;2023-04-24T20:10:15;6.88;;;2.80;;
73487;SDS011;61721;42.206;25.320;2023-04-24T20:12:51;8.45;;;3.25;;
73487;SDS011;61721;42.206;25.320;2023-04-24T20:15:27;7.47;;;3.17;;
73487;SDS011;61721;42.206;25.320;2023-04-24T20:18:06;6.70;;;3.47;;
73487;SDS011;61721;42.206;25.320;2023-04-24T20:20:49;8.55;;;4.05;;
73487;SDS011;61721;42.206;25.320;2023-04-24T20:23:27;10.48;;;4.55;;